Time;durP1;ratioP1;P1;durP2;ratioP2;P2;SDS_P1;SDS_P2;PMS_P1;PMS_P2;Temp;Humidity;BMP_temperature;BMP_pressure;BME280_temperature;BME280_humidity;BME280_pressure;Samples;Min_cycle;Max_cycle;Signal;HPM_P1;HPM_P2
2022/03/24 00:02:10;;;;;;;15.70;9.50;;;5.50;88.40;;;;;;5031712;28;20168;-68
2022/03/24 00:04:36;;;;;;;11.80;8.20;;;5.50;88.80;;;;;;5031485;28;20180;-67
2022/03/24 00:07:02;;;;;;;13.17;10.10;;;5.40;88.90;;;;;;5031666;28;21176;-66
2022/03/24 00:09:27;;;;;;;12.40;6.90;;;5.40;89.50;;;;;;5031904;28;20196;-67
2022/03/24 00:11:53;;;;;;;13.97;8.77;;;5.40;90.00;;;;;;5031586;28;20175;-66
2022/03/24 00:14:19;;;;;;;13.93;8.70;;;5.30;90.10;;;;;;5031754;28;20255;-67
2022/03/24 00:16:45;;;;;;;14.90;10.40;;;5.30;90.40;;;;;;5031413;28;20545;-66
2022/03/24 00:19:11;;;;;;;15.57;8.30;;;5.30;90.60;;;;;;5023260;28;20164;-67
2022/03/24 00:21:36;;;;;;;16.47;9.00;;;5.30;90.90;;;;;;5012433;28;20176;-68
2022/03/24 00:24:03;;;;;;;16.67;9.00;;;5.30;90.90;;;;;;5012165;28;20492;-66
2022/03/24 00:26:29;;;;;;;18.17;8.13;;;5.30;90.90;;;;;;5012179;28;20180;-66
2022/03/24 00:28:54;;;;;;;15.33;9.97;;;5.30;91.20;;;;;;5011962;28;20410;-67
2022/03/24 00:31:20;;;;;;;13.33;10.73;;;5.20;91.30;;;;;;5010755;28;20635;-66
2022/03/24 00:33:45;;;;;;;15.50;8.93;;;5.20;91.60;;;;;;5012310;28;20657;-66
2022/03/24 00:36:12;;;;;;;18.33;9.40;;;5.20;91.80;;;;;;5011831;28;20191;-66
2022/03/24 00:38:38;;;;;;;20.00;9.47;;;5.10;92.20;;;;;;5012540;28;20189;-66
2022/03/24 00:41:04;;;;;;;14.00;8.40;;;5.10;92.40;;;;;;5012951;28;20411;-66
2022/03/24 00:43:30;;;;;;;13.43;7.90;;;5.10;92.60;;;;;;5012232;28;20960;-67
2022/03/24 00:45:55;;;;;;;17.00;9.40;;;5.10;92.70;;;;;;5011493;28;20202;-67
2022/03/24 00:48:22;;;;;;;18.80;9.70;;;5.00;92.80;;;;;;5015259;28;20463;-67
2022/03/24 00:50:47;;;;;;;23.30;8.63;;;5.00;93.10;;;;;;5027498;28;20538;-67
2022/03/24 00:53:13;;;;;;;13.90;7.77;;;5.00;93.60;;;;;;5035024;28;20406;-67
2022/03/24 00:55:39;;;;;;;17.73;8.37;;;4.90;93.20;;;;;;5035277;28;20199;-66
2022/03/24 00:58:05;;;;;;;20.67;9.77;;;4.90;93.90;;;;;;5034712;28;20195;-66
2022/03/24 01:00:32;;;;;;;14.30;7.20;;;4.90;94.10;;;;;;5035115;28;20897;-67
2022/03/24 01:02:58;;;;;;;15.70;7.23;;;4.80;94.10;;;;;;5035191;28;20407;-67
2022/03/24 01:05:27;;;;;;;19.20;10.07;;;4.80;94.40;;;;;;5035331;28;20417;-67
2022/03/24 01:07:54;;;;;;;17.70;9.43;;;4.70;94.60;;;;;;5034888;28;20808;-68
2022/03/24 01:10:20;;;;;;;13.90;7.70;;;4.70;95.10;;;;;;5034831;28;20884;-66
2022/03/24 01:12:47;;;;;;;16.60;10.40;;;4.70;95.20;;;;;;5034861;28;20394;-66
2022/03/24 01:15:16;;;;;;;17.90;9.60;;;4.90;95.80;;;;;;5034795;28;20837;-66
2022/03/24 01:17:42;;;;;;;15.10;7.53;;;4.90;95.60;;;;;;5034564;28;20457;-66
2022/03/24 01:20:09;;;;;;;15.13;8.70;;;4.70;95.60;;;;;;5034473;28;20501;-67
2022/03/24 01:22:35;;;;;;;17.03;9.30;;;4.70;96.00;;;;;;5034735;28;20494;-66
2022/03/24 01:25:01;;;;;;;15.87;9.57;;;4.60;96.10;;;;;;5034916;28;20421;-67
2022/03/24 01:27:28;;;;;;;13.57;8.17;;;4.50;96.40;;;;;;5034670;28;20913;-66
2022/03/24 01:29:55;;;;;;;19.40;9.33;;;4.50;96.70;;;;;;5034616;28;20449;-67
2022/03/24 01:32:21;;;;;;;16.17;9.07;;;4.50;97.00;;;;;;5034654;28;20892;-66
2022/03/24 01:34:48;;;;;;;12.27;8.43;;;4.40;97.20;;;;;;5034708;28;20433;-67
2022/03/24 01:37:14;;;;;;;13.80;8.23;;;4.30;97.60;;;;;;5035429;28;20430;-67
2022/03/24 01:39:40;;;;;;;15.10;7.70;;;4.30;97.90;;;;;;5036046;28;20399;-67
2022/03/24 01:42:06;;;;;;;16.10;9.53;;;4.30;98.30;;;;;;5035627;28;20830;-67
2022/03/24 01:44:32;;;;;;;19.67;9.67;;;4.20;98.40;;;;;;5034403;28;20168;-66
2022/03/24 01:47:00;;;;;;;12.60;7.17;;;4.20;98.60;;;;;;5034158;28;20426;-66
2022/03/24 01:49:27;;;;;;;14.63;9.37;;;4.10;98.90;;;;;;5034113;28;20253;-66
2022/03/24 01:51:53;;;;;;;12.30;10.17;;;4.10;99.40;;;;;;5034142;28;20837;-66
2022/03/24 01:54:20;;;;;;;11.87;8.50;;;4.10;99.40;;;;;;5033966;28;20422;-67
2022/03/24 01:56:46;;;;;;;16.00;8.63;;;4.00;99.80;;;;;;5033670;28;20429;-67
2022/03/24 01:59:14;;;;;;;15.23;7.90;;;4.00;99.90;;;;;;5013701;28;20403;-67
2022/03/24 02:01:40;;;;;;;15.20;7.73;;;3.90;99.90;;;;;;5014142;28;20176;-67
2022/03/24 02:04:06;;;;;;;12.73;9.67;;;3.90;99.90;;;;;;5014250;28;20402;-67
2022/03/24 02:06:33;;;;;;;15.27;10.57;;;3.80;99.90;;;;;;5014066;28;20195;-67
2022/03/24 02:09:03;;;;;;;14.07;7.90;;;3.80;99.90;;;;;;5013917;28;20427;-67
2022/03/24 02:11:30;;;;;;;10.97;9.47;;;3.80;99.90;;;;;;5013786;28;20501;-67
2022/03/24 02:13:56;;;;;;;15.20;9.20;;;3.80;99.90;;;;;;5020717;28;20418;-67
2022/03/24 02:16:29;;;;;;;18.27;10.13;;;3.70;99.90;;;;;;5033704;28;20750;-67
2022/03/24 02:18:59;;;;;;;13.40;7.93;;;3.70;99.90;;;;;;5033716;28;20198;-67
2022/03/24 02:21:25;;;;;;;17.40;9.80;;;3.70;99.90;;;;;;5033502;28;20407;-67
2022/03/24 02:23:51;;;;;;;11.97;8.17;;;3.70;99.90;;;;;;5033596;28;20403;-67
2022/03/24 02:26:17;;;;;;;19.47;8.70;;;3.70;99.90;;;;;;5033194;28;20449;-67
2022/03/24 02:28:45;;;;;;;10.80;6.97;;;3.70;99.90;;;;;;5033557;28;20409;-67
2022/03/24 02:31:11;;;;;;;12.30;9.07;;;3.60;99.90;;;;;;5033507;28;20475;-67
2022/03/24 02:33:37;;;;;;;12.10;8.67;;;3.50;99.90;;;;;;5033597;28;20904;-67
2022/03/24 02:36:04;;;;;;;13.77;9.43;;;3.60;99.90;;;;;;5015436;28;20471;-67
2022/03/24 02:38:29;;;;;;;19.80;9.03;;;3.50;99.90;;;;;;5033218;28;20220;-67
2022/03/24 02:40:55;;;;;;;14.83;8.93;;;3.50;99.90;;;;;;5033566;28;20481;-67
2022/03/24 02:43:21;;;;;;;16.70;9.70;;;3.50;99.90;;;;;;5033268;28;20597;-67
2022/03/24 02:45:50;;;;;;;29.50;10.20;;;3.50;99.90;;;;;;5032932;28;20410;-67
2022/03/24 02:50:47;;;;;;;11.90;9.03;;;3.40;99.90;;;;;;5029274;28;20468;-68
2022/03/24 02:53:12;;;;;;;12.93;7.53;;;3.40;99.90;;;;;;5033129;28;20409;-70
2022/03/24 02:55:38;;;;;;;16.47;8.77;;;3.30;99.90;;;;;;5033237;28;20399;-69
2022/03/24 02:58:04;;;;;;;13.73;7.60;;;3.30;99.90;;;;;;5033650;28;20264;-69
2022/03/24 03:00:29;;;;;;;16.20;7.50;;;3.30;99.90;;;;;;5033955;28;20191;-70
2022/03/24 03:02:54;;;;;;;17.80;9.00;;;3.20;99.90;;;;;;5033064;28;20164;-68
2022/03/24 03:05:21;;;;;;;15.00;9.33;;;3.20;99.90;;;;;;5032900;28;20174;-67
2022/03/24 03:07:47;;;;;;;17.63;10.50;;;3.20;99.90;;;;;;5032919;28;20195;-67
2022/03/24 03:10:13;;;;;;;21.80;10.60;;;3.20;99.90;;;;;;5032004;28;20497;-68
2022/03/24 03:12:39;;;;;;;16.80;9.50;;;3.20;99.90;;;;;;5032731;28;20214;-68
2022/03/24 03:15:05;;;;;;;14.27;9.30;;;3.10;99.90;;;;;;5032542;28;20167;-68
2022/03/24 03:17:30;;;;;;;21.07;10.87;;;3.10;99.90;;;;;;5032677;28;20214;-67
2022/03/24 03:19:56;;;;;;;12.70;7.90;;;3.10;99.90;;;;;;5032596;28;20430;-67
2022/03/24 03:22:22;;;;;;;19.10;10.03;;;3.10;99.90;;;;;;5032877;28;20163;-68
2022/03/24 03:24:47;;;;;;;18.57;8.97;;;3.10;99.90;;;;;;5037396;28;20175;-67
2022/03/24 03:27:14;;;;;;;14.00;9.07;;;3.10;99.90;;;;;;5015685;28;20171;-68
2022/03/24 03:29:40;;;;;;;13.97;8.07;;;3.00;99.90;;;;;;5032315;28;20669;-68
2022/03/24 03:32:06;;;;;;;20.10;9.83;;;3.00;99.90;;;;;;5032388;28;20410;-68
2022/03/24 03:34:32;;;;;;;12.13;9.60;;;3.00;99.90;;;;;;5032568;28;20403;-68
2022/03/24 03:36:59;;;;;;;14.70;9.13;;;3.10;99.90;;;;;;5032705;28;20918;-69
2022/03/24 03:39:25;;;;;;;16.80;9.20;;;3.00;99.90;;;;;;5032486;28;20670;-68
2022/03/24 03:41:52;;;;;;;14.83;9.20;;;3.00;99.90;;;;;;5032242;28;20406;-69
2022/03/24 03:44:19;;;;;;;15.07;7.93;;;3.00;99.90;;;;;;5032184;28;20417;-69
2022/03/24 03:46:45;;;;;;;16.87;8.90;;;3.00;99.90;;;;;;5031982;28;20418;-70
2022/03/24 03:49:10;;;;;;;16.67;7.43;;;2.90;99.90;;;;;;5031879;28;20530;-68
2022/03/24 03:51:37;;;;;;;21.97;9.57;;;2.90;99.90;;;;;;5032211;28;20584;-68
2022/03/24 03:54:07;;;;;;;18.63;11.43;;;2.90;99.90;;;;;;5032196;28;20549;-69
2022/03/24 03:56:34;;;;;;;23.20;11.57;;;2.90;99.90;;;;;;5032098;28;20417;-69
2022/03/24 03:59:00;;;;;;;18.13;9.47;;;2.80;99.90;;;;;;5031958;28;20513;-69
2022/03/24 04:01:26;;;;;;;12.67;9.60;;;2.80;99.90;;;;;;5031744;28;20854;-68
2022/03/24 04:03:52;;;;;;;17.10;9.27;;;2.70;99.90;;;;;;5032192;28;20513;-69
2022/03/24 04:06:17;;;;;;;15.50;8.70;;;2.70;99.90;;;;;;5031926;28;20409;-69
2022/03/24 04:08:44;;;;;;;21.77;9.97;;;2.70;99.90;;;;;;5031915;28;20188;-70
2022/03/24 04:11:11;;;;;;;14.57;10.43;;;2.60;99.90;;;;;;5031775;28;20784;-70
2022/03/24 04:13:37;;;;;;;14.53;9.53;;;2.60;99.90;;;;;;5031825;28;20406;-69
2022/03/24 04:16:03;;;;;;;29.63;11.50;;;2.60;99.90;;;;;;5031561;28;20892;-69
2022/03/24 04:18:29;;;;;;;22.67;11.53;;;2.50;99.90;;;;;;5031639;28;20405;-69
2022/03/24 04:20:55;;;;;;;13.63;8.70;;;2.50;99.90;;;;;;5031588;28;20225;-69
2022/03/24 04:23:21;;;;;;;16.50;9.97;;;2.40;99.90;;;;;;5031706;28;20171;-69
2022/03/24 04:25:47;;;;;;;14.93;9.00;;;2.40;99.90;;;;;;5031648;28;20630;-68
2022/03/24 04:28:14;;;;;;;27.67;11.10;;;2.40;99.90;;;;;;5031609;28;20497;-68
2022/03/24 04:30:39;;;;;;;21.77;10.07;;;2.30;99.90;;;;;;5031548;28;20202;-69
2022/03/24 04:33:04;;;;;;;16.50;9.73;;;2.30;99.90;;;;;;5031560;28;20395;-68
2022/03/24 04:35:31;;;;;;;17.40;11.27;;;2.30;99.90;;;;;;5013631;28;20538;-68
2022/03/24 04:37:57;;;;;;;25.93;10.77;;;2.30;99.90;;;;;;5031568;28;20612;-68
2022/03/24 04:40:24;;;;;;;16.33;9.93;;;2.30;99.90;;;;;;5031422;28;20958;-69
2022/03/24 04:42:52;;;;;;;25.37;12.53;;;2.20;99.90;;;;;;5031428;28;20410;-69
2022/03/24 04:45:18;;;;;;;22.03;11.93;;;2.20;99.90;;;;;;5031390;28;20417;-69
2022/03/24 04:47:45;;;;;;;17.90;9.30;;;2.20;99.90;;;;;;5031645;28;20409;-69
2022/03/24 04:50:11;;;;;;;15.53;12.90;;;2.20;99.90;;;;;;5031167;28;20523;-69
2022/03/24 04:52:37;;;;;;;18.10;10.93;;;2.20;99.90;;;;;;5031272;28;20892;-68
2022/03/24 04:55:03;;;;;;;16.20;9.30;;;2.20;99.90;;;;;;5031356;28;20408;-69
2022/03/24 04:57:29;;;;;;;17.03;10.63;;;2.10;99.90;;;;;;5031435;28;20557;-69
2022/03/24 04:59:55;;;;;;;25.10;9.87;;;2.10;99.90;;;;;;5031177;28;20430;-68
2022/03/24 05:02:21;;;;;;;17.97;11.70;;;2.10;99.90;;;;;;5031210;28;20707;-69
2022/03/24 05:04:47;;;;;;;19.57;9.10;;;2.00;99.90;;;;;;5031317;28;20418;-69
2022/03/24 05:07:13;;;;;;;16.27;9.47;;;2.00;99.90;;;;;;5031614;28;20172;-69
2022/03/24 05:09:39;;;;;;;21.60;8.90;;;2.10;99.90;;;;;;5031785;28;20242;-69
2022/03/24 05:12:05;;;;;;;23.50;10.57;;;2.10;99.90;;;;;;5033194;28;20847;-69
2022/03/24 05:14:31;;;;;;;21.60;10.10;;;2.10;99.90;;;;;;5013877;28;20510;-69
2022/03/24 05:16:57;;;;;;;27.13;13.90;;;2.10;99.90;;;;;;5032813;28;20402;-69
2022/03/24 05:19:23;;;;;;;21.10;11.63;;;2.10;99.90;;;;;;5032561;28;20422;-69
2022/03/24 05:21:48;;;;;;;16.43;11.33;;;2.20;99.90;;;;;;5032320;28;20402;-69
2022/03/24 05:24:14;;;;;;;20.07;10.43;;;2.20;99.90;;;;;;5031281;28;20179;-69
2022/03/24 05:26:40;;;;;;;19.13;12.30;;;2.20;99.90;;;;;;5031195;28;20660;-68
2022/03/24 05:29:06;;;;;;;20.47;11.20;;;2.30;99.90;;;;;;5030993;28;20610;-69
2022/03/24 05:31:31;;;;;;;19.57;12.17;;;2.30;99.90;;;;;;5031357;28;20411;-69
2022/03/24 05:33:57;;;;;;;19.27;12.40;;;2.30;99.90;;;;;;5034704;28;20171;-69
2022/03/24 05:36:22;;;;;;;15.37;11.00;;;2.30;99.90;;;;;;5035233;28;20473;-68
2022/03/24 05:38:54;;;;;;;17.67;10.97;;;2.40;99.90;;;;;;5035032;28;20198;-70
2022/03/24 05:41:19;;;;;;;18.40;11.00;;;2.40;99.90;;;;;;5034295;28;20214;-68
2022/03/24 05:44:02;;;;;;;23.00;12.70;;;2.50;99.90;;;;;;5034531;28;20414;-71
2022/03/24 05:46:29;;;;;;;19.17;12.27;;;2.50;99.90;;;;;;5034535;28;20178;-68
2022/03/24 05:48:54;;;;;;;15.03;10.17;;;2.60;99.90;;;;;;5034348;28;20450;-67
2022/03/24 05:51:20;;;;;;;24.37;13.57;;;2.70;99.90;;;;;;5034429;28;20464;-68
2022/03/24 05:53:45;;;;;;;20.00;13.50;;;2.70;99.90;;;;;;5034399;28;20172;-69
2022/03/24 05:56:11;;;;;;;23.60;11.13;;;2.80;99.90;;;;;;5034226;28;20214;-69
2022/03/24 05:58:36;;;;;;;26.37;14.23;;;2.90;99.90;;;;;;5034318;28;20184;-68
2022/03/24 06:01:02;;;;;;;13.00;9.70;;;3.20;99.90;;;;;;5034355;28;20821;-69
2022/03/24 06:03:29;;;;;;;16.40;12.17;;;3.90;99.90;;;;;;5034676;28;20168;-69
2022/03/24 06:05:59;;;;;;;17.93;10.90;;;4.40;99.90;;;;;;5035588;28;20172;-70
2022/03/24 06:08:24;;;;;;;18.17;11.20;;;4.70;99.90;;;;;;5035321;28;20433;-69
2022/03/24 06:10:51;;;;;;;20.53;11.60;;;5.00;99.90;;;;;;5034537;28;20972;-69
2022/03/24 06:13:17;;;;;;;20.87;11.20;;;5.30;99.90;;;;;;5034683;28;20251;-69
2022/03/24 06:15:43;;;;;;;19.60;10.87;;;5.30;99.90;;;;;;5034613;28;20457;-69
2022/03/24 06:18:08;;;;;;;22.10;12.43;;;5.40;99.90;;;;;;5034865;28;20473;-69
2022/03/24 06:20:34;;;;;;;23.43;9.50;;;6.00;99.90;;;;;;5034380;28;20208;-68
2022/03/24 06:22:59;;;;;;;19.60;9.60;;;6.60;99.90;;;;;;5033719;28;20170;-69
2022/03/24 06:25:25;;;;;;;18.20;10.57;;;6.80;99.90;;;;;;5033666;28;20176;-68
2022/03/24 06:27:51;;;;;;;21.30;11.00;;;6.80;99.90;;;;;;5033901;28;20179;-69
2022/03/24 06:30:17;;;;;;;16.80;11.70;;;7.00;99.90;;;;;;5033677;28;20206;-68
2022/03/24 06:32:42;;;;;;;24.97;11.30;;;7.40;99.90;;;;;;5033647;28;20452;-68
2022/03/24 06:35:08;;;;;;;22.93;11.60;;;8.10;99.90;;;;;;5033611;28;20820;-69
2022/03/24 06:37:41;;;;;;;19.37;13.50;;;8.30;99.90;;;;;;5033500;28;20167;-68
2022/03/24 06:40:08;;;;;;;20.57;11.10;;;8.60;99.90;;;;;;5033588;28;20228;-68
2022/03/24 06:42:34;;;;;;;22.23;12.10;;;8.50;99.90;;;;;;5033372;28;20398;-69
2022/03/24 06:44:59;;;;;;;19.17;12.17;;;8.70;99.90;;;;;;5032109;28;20497;-68
2022/03/24 06:47:25;;;;;;;20.23;12.00;;;8.10;99.90;;;;;;5033238;28;20179;-68
2022/03/24 06:49:50;;;;;;;21.30;11.47;;;8.60;99.90;;;;;;5033252;28;20215;-68
2022/03/24 06:52:16;;;;;;;21.93;13.60;;;8.70;99.90;;;;;;5033052;28;20247;-69
2022/03/24 06:54:41;;;;;;;17.93;12.13;;;9.20;99.90;;;;;;5033348;28;20171;-69
2022/03/24 06:57:07;;;;;;;18.50;13.43;;;9.60;99.90;;;;;;5033495;28;20203;-68
2022/03/24 06:59:33;;;;;;;24.43;13.77;;;9.30;99.90;;;;;;5035988;28;20195;-68
2022/03/24 07:01:59;;;;;;;20.17;12.47;;;9.20;99.90;;;;;;5033967;28;20841;-68
2022/03/24 07:04:24;;;;;;;26.33;14.00;;;9.40;99.90;;;;;;5032964;28;20184;-68
2022/03/24 07:06:49;;;;;;;24.23;13.50;;;9.20;99.90;;;;;;5032672;28;20187;-68
2022/03/24 07:09:15;;;;;;;30.63;12.47;;;9.00;99.90;;;;;;5030558;28;20191;-68
2022/03/24 07:11:40;;;;;;;25.10;15.10;;;9.80;99.90;;;;;;5032619;28;20170;-67
2022/03/24 07:14:06;;;;;;;25.40;14.67;;;10.40;99.90;;;;;;5032920;28;20516;-67
2022/03/24 07:16:31;;;;;;;24.03;15.17;;;11.20;98.90;;;;;;5016140;28;20279;-68
2022/03/24 07:18:57;;;;;;;26.20;15.73;;;11.80;97.30;;;;;;5032568;28;20189;-70
2022/03/24 07:21:22;;;;;;;18.80;13.73;;;11.70;95.50;;;;;;5032378;28;20168;-68
2022/03/24 07:23:48;;;;;;;23.57;14.47;;;11.60;95.30;;;;;;5032783;28;20202;-67
2022/03/24 07:26:13;;;;;;;20.87;14.63;;;11.90;95.00;;;;;;5031921;28;20193;-68
2022/03/24 07:28:38;;;;;;;27.03;16.30;;;11.80;93.60;;;;;;5032481;28;20208;-68
2022/03/24 07:31:16;;;;;;;25.40;15.67;;;11.10;95.70;;;;;;5032483;28;20237;-68
2022/03/24 07:33:43;;;;;;;20.43;13.83;;;11.00;95.00;;;;;;5032378;28;20335;-68
2022/03/24 07:36:09;;;;;;;19.80;14.53;;;11.50;94.90;;;;;;5032219;28;20403;-68
2022/03/24 07:38:34;;;;;;;21.43;14.20;;;11.80;94.40;;;;;;5032481;28;20449;-68
2022/03/24 07:41:01;;;;;;;22.70;15.57;;;11.40;94.00;;;;;;5032426;28;20169;-68
2022/03/24 07:43:28;;;;;;;26.40;15.17;;;11.20;94.00;;;;;;5030733;28;20420;-68
2022/03/24 07:45:53;;;;;;;24.67;14.90;;;11.60;93.90;;;;;;5032265;28;20813;-68
2022/03/24 07:48:25;;;;;;;20.37;13.13;;;11.30;93.60;;;;;;5032419;28;20803;-69
2022/03/24 07:50:53;;;;;;;23.20;12.90;;;11.40;93.90;;;;;;5032353;28;20641;-67
2022/03/24 07:53:48;;;;;;;25.30;14.27;;;12.60;93.40;;;;;;5032260;28;20412;-68
2022/03/24 07:56:14;;;;;;;25.20;16.23;;;13.50;91.10;;;;;;5031497;28;20727;-68
2022/03/24 07:58:40;;;;;;;24.83;15.13;;;13.70;90.70;;;;;;5031847;28;20428;-68
2022/03/24 08:01:06;;;;;;;22.80;14.80;;;13.20;89.80;;;;;;5031777;28;20416;-68
2022/03/24 08:03:32;;;;;;;19.50;13.57;;;14.10;87.90;;;;;;5031966;28;20549;-70
2022/03/24 08:05:58;;;;;;;21.87;15.80;;;13.30;87.60;;;;;;5031728;28;20408;-68
2022/03/24 08:08:26;;;;;;;22.73;16.10;;;14.20;87.20;;;;;;5031666;28;20494;-68
2022/03/24 08:10:51;;;;;;;23.83;15.37;;;13.70;85.70;;;;;;5031578;28;20467;-68
2022/03/24 08:13:18;;;;;;;25.30;16.63;;;13.30;89.70;;;;;;5031629;28;20968;-68
2022/03/24 08:15:44;;;;;;;23.00;15.10;;;12.90;88.50;;;;;;5031227;28;20191;-68
2022/03/24 08:18:11;;;;;;;22.80;14.13;;;12.60;89.80;;;;;;5031688;28;20773;-67
2022/03/24 08:20:38;;;;;;;23.70;16.13;;;13.30;87.60;;;;;;5031667;28;20305;-68
2022/03/24 08:23:05;;;;;;;19.03;14.93;;;13.70;87.40;;;;;;5031531;28;20926;-68
2022/03/24 08:25:31;;;;;;;18.47;14.60;;;14.40;84.70;;;;;;5031390;28;20978;-69
2022/03/24 08:27:57;;;;;;;23.83;15.07;;;14.70;82.80;;;;;;5031482;28;20410;-68
2022/03/24 08:30:23;;;;;;;21.37;14.53;;;13.60;82.90;;;;;;5031264;28;20464;-68
2022/03/24 08:32:49;;;;;;;20.23;14.30;;;14.10;83.60;;;;;;5031338;28;20312;-68
2022/03/24 08:35:14;;;;;;;19.57;14.67;;;13.90;84.80;;;;;;5031632;28;20441;-67
2022/03/24 08:37:40;;;;;;;20.37;14.57;;;13.50;84.20;;;;;;5031223;28;20181;-67
2022/03/24 08:40:07;;;;;;;24.40;15.83;;;13.50;85.20;;;;;;5031445;28;20201;-67
2022/03/24 08:42:36;;;;;;;24.67;14.90;;;14.10;84.70;;;;;;5031318;28;20182;-67
2022/03/24 08:45:02;;;;;;;21.87;15.77;;;14.50;82.50;;;;;;5032206;28;20412;-68
2022/03/24 08:47:27;;;;;;;22.30;16.17;;;14.40;83.10;;;;;;5033406;28;20409;-69
2022/03/24 08:49:53;;;;;;;19.07;15.40;;;14.60;81.70;;;;;;5063202;23;20501;-69
2022/03/24 08:52:21;;;;;;;19.67;14.57;;;14.40;81.40;;;;;;5070667;28;20168;-68
2022/03/24 08:54:46;;;;;;;19.33;14.17;;;14.70;81.10;;;;;;5070962;28;20199;-67
2022/03/24 08:57:12;;;;;;;24.57;15.10;;;15.10;80.10;;;;;;5070692;28;20436;-69
2022/03/24 08:59:37;;;;;;;17.97;13.90;;;14.70;79.40;;;;;;5075831;28;20200;-69
2022/03/24 09:02:04;;;;;;;20.13;15.50;;;14.90;79.00;;;;;;5084593;28;20211;-67
2022/03/24 09:04:29;;;;;;;22.90;15.40;;;15.50;79.20;;;;;;5073037;28;20196;-68
2022/03/24 09:06:55;;;;;;;20.10;14.03;;;15.90;77.20;;;;;;5090793;28;20468;-69
2022/03/24 09:09:22;;;;;;;19.07;13.73;;;16.40;77.00;;;;;;5067619;28;20169;-67
2022/03/24 09:11:48;;;;;;;18.77;13.50;;;15.30;77.30;;;;;;5094412;28;20173;-67
2022/03/24 09:14:15;;;;;;;21.70;15.77;;;14.50;78.60;;;;;;5095081;28;20405;-67
2022/03/24 09:16:41;;;;;;;16.60;14.50;;;14.80;79.40;;;;;;5093427;28;20416;-67
2022/03/24 09:19:06;;;;;;;22.90;14.93;;;15.90;77.10;;;;;;5095067;28;20410;-67
2022/03/24 09:21:32;;;;;;;20.40;14.73;;;16.10;76.00;;;;;;5094922;28;20257;-68
2022/03/24 09:23:58;;;;;;;19.23;13.10;;;16.50;71.70;;;;;;5094893;28;20186;-68
2022/03/24 09:26:24;;;;;;;20.50;13.73;;;16.90;70.30;;;;;;5103431;28;20256;-68
2022/03/24 09:28:51;;;;;;;16.37;12.37;;;16.40;69.40;;;;;;5114986;28;20506;-68
2022/03/24 09:31:17;;;;;;;17.33;12.53;;;16.00;70.60;;;;;;5115237;28;20204;-68
2022/03/24 09:33:43;;;;;;;18.37;13.33;;;14.90;69.40;;;;;;5098566;28;20457;-68
2022/03/24 09:36:08;;;;;;;14.37;10.73;;;16.50;69.70;;;;;;5094338;28;20438;-68
2022/03/24 09:38:34;;;;;;;14.07;10.97;;;17.20;62.30;;;;;;5094567;28;20168;-66
2022/03/24 09:41:00;;;;;;;15.30;10.60;;;15.70;62.40;;;;;;5094563;28;20199;-66
2022/03/24 09:43:27;;;;;;;17.60;12.20;;;14.90;65.70;;;;;;5094694;28;20162;-66
2022/03/24 09:45:53;;;;;;;13.53;9.37;;;15.50;66.20;;;;;;5094441;28;20471;-66
2022/03/24 09:48:18;;;;;;;14.00;9.50;;;16.20;59.70;;;;;;5094568;28;20404;-66
2022/03/24 09:50:45;;;;;;;14.83;10.97;;;17.00;55.30;;;;;;5094189;28;21165;-66
2022/03/24 09:53:11;;;;;;;12.37;9.50;;;17.50;57.00;;;;;;5093863;28;20245;-66
2022/03/24 09:55:38;;;;;;;12.03;9.73;;;15.60;58.90;;;;;;5093899;28;20910;-66
2022/03/24 09:58:06;;;;;;;16.23;11.80;;;16.00;59.30;;;;;;5094293;28;20462;-66
2022/03/24 10:00:32;;;;;;;14.73;10.37;;;16.40;59.70;;;;;;5094306;28;20441;-67
2022/03/24 10:03:17;;;;;;;16.60;10.00;;;16.10;58.40;;;;;;5094402;28;20783;-67
2022/03/24 10:06:04;;;;;;;12.93;9.73;;;16.00;57.10;;;;;;5094497;28;20177;-66
2022/03/24 10:08:30;;;;;;;18.17;10.97;;;15.60;57.50;;;;;;5093098;28;20498;-67
2022/03/24 10:11:06;;;;;;;18.13;11.00;;;14.30;58.70;;;;;;5089653;28;20525;-67
2022/03/24 10:13:51;;;;;;;13.53;8.67;;;14.50;58.70;;;;;;5093740;28;20409;-67
2022/03/24 10:16:35;;;;;;;15.93;8.40;;;14.40;57.40;;;;;;5093583;28;20412;-67
2022/03/24 10:19:02;;;;;;;14.10;8.23;;;14.50;56.80;;;;;;5093596;28;20483;-67
2022/03/24 10:21:29;;;;;;;12.53;8.87;;;14.70;57.60;;;;;;5093491;28;20506;-67
2022/03/24 10:24:00;;;;;;;13.33;8.73;;;13.90;59.10;;;;;;5093559;28;20408;-67
2022/03/24 10:26:50;;;;;;;12.07;8.73;;;13.90;59.00;;;;;;5093602;28;20810;-67
2022/03/24 10:29:21;;;;;;;16.00;7.60;;;14.40;56.90;;;;;;5093619;28;20469;-67
2022/03/24 10:31:58;;;;;;;19.80;8.60;;;14.20;55.50;;;;;;5093488;28;20399;-67
2022/03/24 10:34:36;;;;;;;14.33;8.80;;;14.30;56.50;;;;;;5093432;28;20430;-67
2022/03/24 10:37:07;;;;;;;15.33;8.70;;;13.70;59.10;;;;;;5093190;28;20471;-67
2022/03/24 10:39:34;;;;;;;13.20;8.60;;;13.90;59.20;;;;;;5093152;28;20427;-67
2022/03/24 10:42:12;;;;;;;17.00;8.90;;;14.00;57.90;;;;;;5087168;28;20408;-67
2022/03/24 10:44:57;;;;;;;12.17;8.30;;;14.00;57.40;;;;;;5072942;28;20432;-67
2022/03/24 10:47:56;;;;;;;13.10;7.73;;;14.10;56.80;;;;;;5072323;28;20417;-67
2022/03/24 10:50:25;;;;;;;10.17;6.93;;;14.20;55.20;;;;;;5016479;28;20571;-67
2022/03/24 10:52:51;;;;;;;11.17;7.20;;;14.30;55.60;;;;;;5072815;28;20432;-67
2022/03/24 10:55:35;;;;;;;14.40;8.87;;;14.10;56.30;;;;;;5072589;28;20443;-67
2022/03/24 10:58:03;;;;;;;13.60;9.53;;;14.20;57.70;;;;;;5072702;28;20885;-67
2022/03/24 11:00:29;;;;;;;14.30;9.40;;;14.10;58.10;;;;;;5072999;28;20968;-67
2022/03/24 11:02:55;;;;;;;16.43;9.40;;;14.00;58.30;;;;;;5072608;28;20405;-67
2022/03/24 11:05:21;;;;;;;9.80;7.60;;;13.90;57.50;;;;;;5072651;28;20622;-66
2022/03/24 11:07:53;;;;;;;13.57;7.70;;;14.10;56.60;;;;;;5072769;28;20472;-66
2022/03/24 11:10:20;;;;;;;14.77;7.60;;;14.00;55.40;;;;;;5072382;28;20272;-67
2022/03/24 11:12:54;;;;;;;12.70;6.97;;;14.00;56.40;;;;;;5054485;28;20913;-67
2022/03/24 11:15:21;;;;;;;10.20;6.57;;;14.00;57.40;;;;;;5072546;28;20473;-66
2022/03/24 11:17:47;;;;;;;14.60;8.23;;;14.10;57.10;;;;;;5072605;28;20412;-66
2022/03/24 11:20:22;;;;;;;18.03;8.00;;;14.20;56.10;;;;;;5072230;28;20425;-66
2022/03/24 11:22:56;;;;;;;11.40;6.70;;;14.20;56.40;;;;;;5072307;28;20408;-66
2022/03/24 11:25:25;;;;;;;13.17;6.90;;;14.40;54.60;;;;;;5072496;28;20454;-66
2022/03/24 11:27:53;;;;;;;13.13;7.97;;;14.30;55.00;;;;;;5072225;28;20546;-67
2022/03/24 11:30:20;;;;;;;14.27;8.23;;;14.40;55.70;;;;;;5071519;28;20460;-66
2022/03/24 11:32:49;;;;;;;11.03;7.33;;;14.50;55.40;;;;;;5071869;28;20421;-66
2022/03/24 11:35:15;;;;;;;13.10;6.90;;;14.70;55.80;;;;;;5071795;28;20407;-66
2022/03/24 11:37:41;;;;;;;10.40;7.33;;;14.80;55.50;;;;;;5071653;28;20422;-66
2022/03/24 11:40:12;;;;;;;12.60;6.33;;;14.80;54.70;;;;;;5071807;28;20994;-66
2022/03/24 11:42:48;;;;;;;12.20;6.17;;;14.70;52.20;;;;;;5071934;28;20405;-66
2022/03/24 11:45:19;;;;;;;10.60;6.40;;;14.60;52.40;;;;;;5071726;28;20414;-66
2022/03/24 11:48:05;;;;;;;7.77;5.50;;;14.70;51.50;;;;;;5071771;28;20413;-66
2022/03/24 11:50:49;;;;;;;14.60;7.10;;;14.80;51.00;;;;;;5071486;28;20503;-66
2022/03/24 11:53:29;;;;;;;5.53;4.43;;;15.10;52.40;;;;;;5071644;28;20904;-67
2022/03/24 11:56:03;;;;;;;14.90;5.63;;;15.00;51.80;;;;;;5071515;28;20412;-67
2022/03/24 11:58:41;;;;;;;8.20;5.60;;;15.10;51.90;;;;;;5071541;28;20409;-66
2022/03/24 12:01:19;;;;;;;6.90;5.43;;;15.00;51.40;;;;;;5071450;28;20432;-66
2022/03/24 12:03:54;;;;;;;7.50;5.87;;;15.20;52.80;;;;;;5071553;28;20396;-66
2022/03/24 12:06:46;;;;;;;12.47;6.43;;;15.10;52.30;;;;;;5071394;28;20965;-66
2022/03/24 12:09:17;;;;;;;8.73;5.87;;;14.90;50.90;;;;;;5071248;28;20415;-66
2022/03/24 12:11:51;;;;;;;10.40;5.93;;;14.90;50.80;;;;;;5071114;28;20459;-66
2022/03/24 12:14:20;;;;;;;8.20;6.57;;;15.20;50.30;;;;;;5071424;28;20888;-66
2022/03/24 12:16:52;;;;;;;10.70;6.50;;;15.30;50.60;;;;;;5071527;28;20397;-67
2022/03/24 12:19:35;;;;;;;9.50;7.20;;;15.40;50.40;;;;;;5071194;28;20411;-66
2022/03/24 12:22:21;;;;;;;12.60;6.77;;;15.30;50.50;;;;;;5071366;28;20512;-66
2022/03/24 12:24:47;;;;;;;9.87;6.30;;;15.30;50.90;;;;;;5053574;28;20923;-66
2022/03/24 12:27:15;;;;;;;11.07;6.60;;;15.40;50.80;;;;;;5071258;28;20457;-67
2022/03/24 12:29:40;;;;;;;8.03;6.20;;;15.40;50.00;;;;;;5071374;28;20733;-67
2022/03/24 12:32:10;;;;;;;8.03;5.83;;;15.40;48.40;;;;;;5070983;28;20496;-67
2022/03/24 12:34:38;;;;;;;6.50;4.53;;;15.20;47.80;;;;;;5071532;28;20178;-67
2022/03/24 12:37:23;;;;;;;8.50;5.87;;;15.40;48.50;;;;;;5071283;28;20454;-67
2022/03/24 12:40:10;;;;;;;12.50;5.60;;;15.40;48.50;;;;;;5071289;28;20499;-67
2022/03/24 12:42:51;;;;;;;9.53;6.27;;;15.20;48.10;;;;;;5073845;28;20407;-67
2022/03/24 12:45:38;;;;;;;8.67;5.07;;;15.20;48.40;;;;;;5075276;28;20455;-67